Time;durP1;ratioP1;P1;durP2;ratioP2;P2;SDS_P1;SDS_P2;PMS_P1;PMS_P2;Temp;Humidity;BMP_temperature;BMP_pressure;BME280_temperature;BME280_humidity;BME280_pressure;Samples;Min_cycle;Max_cycle;Signal;HPM_P1;HPM_P2
2023/12/23 00:00:35;;;;;;;9.98;1.08;;;7.40;99.90;;;;;;5051905;28;20281;-56
2023/12/23 00:03:01;;;;;;;0.88;0.60;;;7.40;99.90;;;;;;5051596;28;20251;-55
2023/12/23 00:05:26;;;;;;;4.47;1.33;;;7.40;99.90;;;;;;5051706;28;20245;-57
2023/12/23 00:07:52;;;;;;;7.05;1.00;;;7.40;99.90;;;;;;5051672;28;20220;-57
2023/12/23 00:10:17;;;;;;;2.47;1.02;;;7.40;99.90;;;;;;5052040;28;20228;-57
2023/12/23 00:12:43;;;;;;;6.65;1.38;;;7.40;99.90;;;;;;5051593;28;20171;-57
2023/12/23 00:15:09;;;;;;;2.30;0.82;;;7.40;99.90;;;;;;5051445;28;20171;-57
2023/12/23 00:17:34;;;;;;;1.85;0.70;;;7.40;99.90;;;;;;5051388;28;20289;-57
2023/12/23 00:20:00;;;;;;;3.38;0.90;;;7.40;99.90;;;;;;5051179;28;20580;-56
2023/12/23 00:22:26;;;;;;;2.90;0.85;;;7.40;99.90;;;;;;5051373;28;20202;-57
2023/12/23 00:24:51;;;;;;;6.65;1.10;;;7.40;99.90;;;;;;5051409;28;20601;-57
2023/12/23 00:27:17;;;;;;;3.00;1.00;;;7.40;99.90;;;;;;5051730;28;20175;-57
2023/12/23 00:29:42;;;;;;;3.00;0.63;;;7.40;99.90;;;;;;5051284;28;20194;-58
2023/12/23 00:32:08;;;;;;;4.30;1.33;;;7.40;99.90;;;;;;5050477;28;20216;-56
2023/12/23 00:34:34;;;;;;;2.15;0.73;;;7.40;99.90;;;;;;5051227;28;20206;-53
2023/12/23 00:36:59;;;;;;;5.63;1.38;;;7.40;99.90;;;;;;5051355;28;20155;-53
2023/12/23 00:39:25;;;;;;;3.38;1.10;;;7.40;99.90;;;;;;5051235;28;20218;-53
2023/12/23 00:41:50;;;;;;;6.88;1.20;;;7.40;99.90;;;;;;5051217;28;20167;-53
2023/12/23 00:44:16;;;;;;;2.92;0.73;;;7.40;99.90;;;;;;5051683;28;20170;-53
2023/12/23 00:46:42;;;;;;;2.65;0.70;;;7.40;99.90;;;;;;5050943;28;20184;-53
2023/12/23 00:49:07;;;;;;;4.68;1.10;;;7.40;99.90;;;;;;5051147;28;20178;-53
2023/12/23 00:51:33;;;;;;;5.50;1.83;;;7.40;99.90;;;;;;5051109;28;20634;-53
2023/12/23 00:53:58;;;;;;;2.90;0.75;;;7.50;99.90;;;;;;5050820;28;20686;-53
2023/12/23 00:56:24;;;;;;;2.42;0.85;;;7.40;99.90;;;;;;5051097;28;20243;-53
2023/12/23 00:58:49;;;;;;;4.55;1.30;;;7.40;99.90;;;;;;5050904;28;20274;-53
2023/12/23 01:01:15;;;;;;;1.65;0.90;;;7.40;99.90;;;;;;5051252;28;20177;-53
2023/12/23 01:03:41;;;;;;;5.63;1.05;;;7.40;99.90;;;;;;5050992;28;20174;-53
2023/12/23 01:06:07;;;;;;;16.80;1.40;;;7.40;99.90;;;;;;5050825;28;20170;-53
2023/12/23 01:08:32;;;;;;;7.38;1.30;;;7.40;99.90;;;;;;5050876;28;20175;-52
2023/12/23 01:10:58;;;;;;;3.78;1.10;;;7.40;99.90;;;;;;5050995;28;20175;-53
2023/12/23 01:13:23;;;;;;;7.88;1.38;;;7.40;99.90;;;;;;5051158;28;20435;-53
2023/12/23 01:15:49;;;;;;;3.75;0.85;;;7.40;99.90;;;;;;5050604;28;20237;-53
2023/12/23 01:18:16;;;;;;;5.55;1.23;;;7.30;99.90;;;;;;5051291;28;20324;-52
2023/12/23 01:20:42;;;;;;;3.13;1.23;;;7.40;99.90;;;;;;5050893;28;20526;-53
2023/12/23 01:23:08;;;;;;;5.07;1.40;;;7.30;99.90;;;;;;5051032;28;20174;-53
2023/12/23 01:25:34;;;;;;;6.47;1.30;;;7.30;99.90;;;;;;5050627;28;20166;-53
2023/12/23 01:28:04;;;;;;;6.50;1.23;;;7.40;99.90;;;;;;5050780;28;20178;-53
2023/12/23 01:30:30;;;;;;;5.78;1.52;;;7.40;99.90;;;;;;5050755;28;20159;-53
2023/12/23 01:32:56;;;;;;;5.68;1.45;;;7.40;99.90;;;;;;5050638;28;20178;-53
2023/12/23 01:35:21;;;;;;;1.55;0.98;;;7.40;99.90;;;;;;5050736;28;20167;-53
2023/12/23 01:37:47;;;;;;;5.15;1.55;;;7.40;99.90;;;;;;5051090;28;20195;-52
2023/12/23 01:40:12;;;;;;;6.50;1.50;;;7.40;99.90;;;;;;5050645;28;20179;-53
2023/12/23 01:42:39;;;;;;;4.72;1.73;;;7.40;99.90;;;;;;5050566;28;20165;-53
2023/12/23 01:45:06;;;;;;;5.10;1.40;;;7.40;99.90;;;;;;5053856;28;20166;-53
2023/12/23 01:47:32;;;;;;;4.45;1.90;;;7.40;99.90;;;;;;5053818;28;20216;-53
2023/12/23 01:49:58;;;;;;;5.90;1.50;;;7.40;99.90;;;;;;5054176;28;20514;-53
2023/12/23 01:52:24;;;;;;;7.45;1.70;;;7.40;99.90;;;;;;5054127;28;20166;-53
2023/12/23 01:54:50;;;;;;;5.20;1.40;;;7.50;99.90;;;;;;5053912;28;20694;-53
2023/12/23 01:57:17;;;;;;;8.30;1.92;;;7.40;99.90;;;;;;5054424;28;20205;-53
2023/12/23 01:59:42;;;;;;;3.83;1.67;;;7.40;99.90;;;;;;5053974;28;20649;-52
2023/12/23 02:02:08;;;;;;;5.75;1.58;;;7.40;99.90;;;;;;5053841;28;20171;-53
2023/12/23 02:04:34;;;;;;;4.43;1.50;;;7.40;99.90;;;;;;5053945;28;20513;-53
2023/12/23 02:07:00;;;;;;;4.25;1.63;;;7.40;99.90;;;;;;5053775;28;20174;-53
2023/12/23 02:09:26;;;;;;;4.50;1.38;;;7.40;99.90;;;;;;5053802;28;20216;-53
2023/12/23 02:12:08;;;;;;;10.68;1.98;;;7.40;99.90;;;;;;5053771;28;20163;-53
2023/12/23 02:14:50;;;;;;;10.98;2.22;;;7.50;99.90;;;;;;5053713;28;20212;-53
2023/12/23 02:17:15;;;;;;;5.47;1.77;;;7.50;99.90;;;;;;5053889;28;20537;-53
2023/12/23 02:19:41;;;;;;;5.07;2.03;;;7.50;99.90;;;;;;5053547;28;20241;-53
2023/12/23 02:22:06;;;;;;;5.30;1.85;;;7.50;99.90;;;;;;5053590;28;20596;-53
2023/12/23 02:24:32;;;;;;;5.03;1.65;;;7.50;99.90;;;;;;5052952;28;20258;-53
2023/12/23 02:27:09;;;;;;;8.52;2.50;;;7.50;99.90;;;;;;5053416;28;20170;-53
2023/12/23 02:29:35;;;;;;;6.57;1.88;;;7.60;99.90;;;;;;5053445;28;20166;-53
2023/12/23 02:32:02;;;;;;;7.18;1.90;;;7.60;99.90;;;;;;5053368;28;20524;-54
2023/12/23 02:34:29;;;;;;;8.43;1.65;;;7.60;99.90;;;;;;5053374;28;20217;-53
2023/12/23 02:36:54;;;;;;;13.80;2.47;;;7.70;99.90;;;;;;5053442;28;20266;-53
2023/12/23 02:39:20;;;;;;;9.68;2.15;;;7.70;99.90;;;;;;5053205;28;20258;-53
2023/12/23 02:41:45;;;;;;;6.97;2.15;;;7.70;99.90;;;;;;5053675;28;20163;-53
2023/12/23 02:44:11;;;;;;;9.07;2.47;;;7.70;99.90;;;;;;5053124;28;20173;-53
2023/12/23 02:46:37;;;;;;;7.82;2.22;;;7.80;99.90;;;;;;5053022;28;20167;-53
2023/12/23 02:49:03;;;;;;;11.52;2.58;;;7.80;99.90;;;;;;5053000;28;20641;-53
2023/12/23 02:51:28;;;;;;;8.30;2.53;;;7.80;99.90;;;;;;5053113;28;20171;-57
2023/12/23 02:53:54;;;;;;;4.55;2.47;;;7.90;99.90;;;;;;5052826;28;20225;-56
2023/12/23 02:56:19;;;;;;;8.80;2.70;;;8.00;99.90;;;;;;5050957;28;20205;-56
2023/12/23 02:58:45;;;;;;;8.18;3.80;;;8.10;99.90;;;;;;5053226;28;20735;-56
2023/12/23 03:01:11;;;;;;;11.18;4.05;;;8.20;99.90;;;;;;5051485;28;20716;-57
2023/12/23 03:03:36;;;;;;;8.27;3.33;;;8.20;99.90;;;;;;5052720;28;20166;-56
2023/12/23 03:06:02;;;;;;;10.50;4.45;;;8.20;99.90;;;;;;5052748;28;20535;-56
2023/12/23 03:08:28;;;;;;;7.80;4.03;;;8.30;99.90;;;;;;5052602;28;20631;-55
2023/12/23 03:10:53;;;;;;;10.35;4.40;;;8.30;99.90;;;;;;5052680;28;20186;-55
2023/12/23 03:13:19;;;;;;;11.40;4.35;;;8.40;99.90;;;;;;5052524;28;20178;-55
2023/12/23 03:15:44;;;;;;;8.23;5.13;;;8.40;99.90;;;;;;5052690;28;20182;-56
2023/12/23 03:18:10;;;;;;;15.52;5.15;;;8.40;99.90;;;;;;5052310;28;20210;-55
2023/12/23 03:20:35;;;;;;;5.65;4.20;;;8.40;99.90;;;;;;5052462;28;20220;-54
2023/12/23 03:23:03;;;;;;;11.73;4.55;;;8.40;99.90;;;;;;5052659;28;20171;-53
2023/12/23 03:25:29;;;;;;;12.48;5.25;;;8.40;99.90;;;;;;5052513;28;20163;-54
2023/12/23 03:27:54;;;;;;;14.75;4.78;;;8.40;99.90;;;;;;5052371;28;20174;-54
2023/12/23 03:30:20;;;;;;;5.22;3.47;;;8.40;99.90;;;;;;5052349;28;20169;-55
2023/12/23 03:32:46;;;;;;;13.75;5.38;;;8.40;99.90;;;;;;5052660;28;20159;-55
2023/12/23 03:35:12;;;;;;;9.00;4.55;;;8.30;99.90;;;;;;5052150;28;20268;-55
2023/12/23 03:37:37;;;;;;;8.00;4.60;;;8.30;99.90;;;;;;5052098;28;20551;-55
2023/12/23 03:40:04;;;;;;;4.70;3.90;;;8.30;99.90;;;;;;5052334;28;20184;-55
2023/12/23 03:42:30;;;;;;;6.20;4.05;;;8.30;99.90;;;;;;5052100;28;20159;-56
2023/12/23 03:44:55;;;;;;;10.00;4.88;;;8.30;99.90;;;;;;5051763;28;20216;-55
2023/12/23 03:47:21;;;;;;;10.88;5.03;;;8.30;99.90;;;;;;5051924;28;20250;-54
2023/12/23 03:49:46;;;;;;;11.70;5.13;;;8.40;99.90;;;;;;5052544;28;20178;-53
2023/12/23 03:52:12;;;;;;;14.27;5.07;;;8.40;99.90;;;;;;5051945;28;20169;-53
2023/12/23 03:54:37;;;;;;;16.83;5.82;;;8.30;99.90;;;;;;5051726;28;20671;-53
2023/12/23 03:57:03;;;;;;;16.15;5.85;;;8.40;99.90;;;;;;5051667;28;20163;-53
2023/12/23 03:59:29;;;;;;;12.68;5.18;;;8.40;99.90;;;;;;5051926;28;20189;-53
2023/12/23 04:01:54;;;;;;;11.52;6.05;;;8.40;99.90;;;;;;5051695;28;20622;-53
2023/12/23 04:04:20;;;;;;;7.65;4.25;;;8.40;99.90;;;;;;5051754;28;20198;-54
2023/12/23 04:06:46;;;;;;;17.17;4.97;;;8.40;99.90;;;;;;5052240;28;20166;-56
2023/12/23 04:09:11;;;;;;;4.65;3.47;;;8.40;99.90;;;;;;5051596;28;20530;-56
2023/12/23 04:11:37;;;;;;;10.50;4.40;;;8.40;99.90;;;;;;5051525;28;20181;-54
2023/12/23 04:14:03;;;;;;;11.93;4.35;;;8.40;99.90;;;;;;5051787;28;20209;-56
2023/12/23 04:16:28;;;;;;;8.43;3.33;;;8.50;99.90;;;;;;5051326;28;20180;-55
2023/12/23 04:18:54;;;;;;;7.47;3.85;;;8.40;99.90;;;;;;5051428;28;20213;-55
2023/12/23 04:21:20;;;;;;;14.85;4.45;;;8.40;99.90;;;;;;5051606;28;20170;-53
2023/12/23 04:23:45;;;;;;;7.35;3.65;;;8.40;99.90;;;;;;5051735;28;20262;-53
2023/12/23 04:26:14;;;;;;;6.43;3.35;;;8.50;99.90;;;;;;5051304;28;20524;-53
2023/12/23 04:28:40;;;;;;;8.07;3.80;;;8.50;99.90;;;;;;5051362;28;20208;-53
2023/12/23 04:31:06;;;;;;;6.07;3.20;;;8.50;99.90;;;;;;5051336;28;20163;-53
2023/12/23 04:33:34;;;;;;;7.60;2.95;;;8.40;99.90;;;;;;5051300;28;20678;-53
2023/12/23 04:36:00;;;;;;;10.10;3.55;;;8.40;99.90;;;;;;5050978;28;20165;-52
2023/12/23 04:38:25;;;;;;;14.20;4.50;;;8.40;99.90;;;;;;5051415;28;20206;-53
2023/12/23 04:40:51;;;;;;;7.78;3.03;;;8.50;99.90;;;;;;5051514;28;20213;-56
2023/12/23 04:43:16;;;;;;;7.05;3.78;;;8.50;99.90;;;;;;5051591;28;20166;-53
2023/12/23 04:45:42;;;;;;;13.48;2.97;;;8.50;99.90;;;;;;5050954;28;20591;-55
2023/12/23 04:48:07;;;;;;;6.90;2.22;;;8.50;99.90;;;;;;5050877;28;20333;-53
2023/12/23 04:50:33;;;;;;;7.90;3.20;;;8.50;99.90;;;;;;5051165;28;20166;-53
2023/12/23 04:52:59;;;;;;;9.32;2.22;;;8.50;99.90;;;;;;5051519;28;20167;-53
2023/12/23 04:55:24;;;;;;;8.13;2.88;;;8.50;99.90;;;;;;5050961;28;20281;-53
2023/12/23 04:57:50;;;;;;;3.92;1.80;;;8.50;99.90;;;;;;5051244;28;20691;-53
2023/12/23 05:00:16;;;;;;;5.07;3.25;;;8.50;99.90;;;;;;5051453;28;20634;-53
2023/12/23 05:02:41;;;;;;;7.13;1.73;;;8.50;99.90;;;;;;5051304;28;20510;-53
2023/12/23 05:05:07;;;;;;;4.50;2.03;;;8.50;99.90;;;;;;5051003;28;20163;-53
2023/12/23 05:07:33;;;;;;;16.92;3.45;;;8.50;99.90;;;;;;5050956;28;20166;-53
2023/12/23 05:09:58;;;;;;;6.03;2.08;;;8.50;99.90;;;;;;5050969;28;20182;-53
2023/12/23 05:12:24;;;;;;;6.15;2.22;;;8.50;99.90;;;;;;5050945;28;20699;-53
2023/12/23 05:14:51;;;;;;;9.48;1.95;;;8.50;99.90;;;;;;5050656;28;20182;-53
2023/12/23 05:17:16;;;;;;;4.65;2.13;;;8.50;99.90;;;;;;5051515;28;20225;-53
2023/12/23 05:19:42;;;;;;;8.88;2.10;;;8.50;99.90;;;;;;5053665;28;20182;-53
2023/12/23 05:22:08;;;;;;;7.75;2.53;;;8.50;99.90;;;;;;5054552;28;20181;-53
2023/12/23 05:24:36;;;;;;;5.43;1.98;;;8.50;99.90;;;;;;5054991;28;20186;-53
2023/12/23 05:27:02;;;;;;;9.00;2.00;;;8.50;99.90;;;;;;5054872;28;20171;-52
2023/12/23 05:29:27;;;;;;;8.73;2.17;;;8.50;99.90;;;;;;5054567;28;20562;-52
2023/12/23 05:31:53;;;;;;;7.90;2.45;;;8.60;99.90;;;;;;5053267;28;20202;-51
2023/12/23 05:34:18;;;;;;;10.10;2.50;;;8.60;99.90;;;;;;5054439;28;20198;-55
2023/12/23 05:36:44;;;;;;;8.32;2.05;;;8.50;99.90;;;;;;5054928;28;20561;-53
2023/12/23 05:39:10;;;;;;;6.53;2.45;;;8.50;99.90;;;;;;5054321;28;20277;-54
2023/12/23 05:41:36;;;;;;;7.40;2.05;;;8.50;99.90;;;;;;5054304;28;20262;-53
2023/12/23 05:44:01;;;;;;;4.72;2.00;;;8.50;99.90;;;;;;5054311;28;20171;-54
2023/12/23 05:46:27;;;;;;;9.10;2.30;;;8.60;99.90;;;;;;5053080;28;20174;-55
2023/12/23 05:48:52;;;;;;;3.88;2.25;;;8.60;99.90;;;;;;5053492;28;20695;-54
2023/12/23 05:51:18;;;;;;;6.25;2.30;;;8.60;99.90;;;;;;5054108;28;20630;-53
2023/12/23 05:53:43;;;;;;;15.77;2.72;;;8.60;99.90;;;;;;5054401;28;20567;-54
2023/12/23 05:56:09;;;;;;;5.47;2.10;;;8.60;99.90;;;;;;5054326;28;20507;-53
2023/12/23 05:58:34;;;;;;;7.00;2.03;;;8.60;99.90;;;;;;5053887;28;20216;-54
2023/12/23 06:01:00;;;;;;;9.18;2.10;;;8.60;99.90;;;;;;5054180;28;20178;-53
2023/12/23 06:03:26;;;;;;;7.38;2.40;;;8.60;99.90;;;;;;5053820;28;20179;-54
2023/12/23 06:05:52;;;;;;;5.53;1.83;;;8.50;99.90;;;;;;5053874;28;20166;-53
2023/12/23 06:08:17;;;;;;;6.53;2.70;;;8.60;99.90;;;;;;5054173;28;20181;-54
2023/12/23 06:10:43;;;;;;;6.25;2.40;;;8.60;99.90;;;;;;5053779;28;20178;-53
2023/12/23 06:13:08;;;;;;;6.85;2.58;;;8.60;99.90;;;;;;5053573;28;20162;-52
2023/12/23 06:15:34;;;;;;;12.73;2.63;;;8.60;99.90;;;;;;5053200;28;20182;-53
2023/12/23 06:17:59;;;;;;;8.73;2.30;;;8.60;99.90;;;;;;5053227;28;20202;-52
2023/12/23 06:20:25;;;;;;;4.10;1.58;;;8.60;99.90;;;;;;5053332;28;20178;-54
2023/12/23 06:22:51;;;;;;;10.60;2.95;;;8.60;99.90;;;;;;5053570;28;20220;-53
2023/12/23 06:25:16;;;;;;;13.55;3.58;;;8.60;99.90;;;;;;5053870;28;20179;-53
2023/12/23 06:27:42;;;;;;;8.07;3.05;;;8.60;99.90;;;;;;5053483;28;20170;-54
2023/12/23 06:30:08;;;;;;;4.57;2.35;;;8.60;99.90;;;;;;5052185;28;20174;-53
2023/12/23 06:32:33;;;;;;;12.13;2.63;;;8.60;99.90;;;;;;5053339;28;20252;-54
2023/12/23 06:35:00;;;;;;;6.03;2.38;;;8.60;99.90;;;;;;5053300;28;20177;-54
2023/12/23 06:37:25;;;;;;;7.10;2.70;;;8.50;99.90;;;;;;5053442;28;20203;-54
2023/12/23 06:39:51;;;;;;;8.88;3.35;;;8.50;99.90;;;;;;5053220;28;20598;-53
2023/12/23 06:42:17;;;;;;;9.00;1.92;;;8.60;99.90;;;;;;5053819;28;20175;-53
2023/12/23 06:44:43;;;;;;;5.40;2.40;;;8.60;99.90;;;;;;5053344;28;20177;-53
2023/12/23 06:47:08;;;;;;;8.80;3.80;;;8.60;99.90;;;;;;5052677;28;20250;-54
2023/12/23 06:49:34;;;;;;;6.65;2.22;;;8.60;99.90;;;;;;5053082;28;20173;-57
2023/12/23 06:52:00;;;;;;;14.05;3.03;;;8.60;99.90;;;;;;5053021;28;20159;-57
2023/12/23 06:54:25;;;;;;;8.02;2.35;;;8.60;99.90;;;;;;5052947;28;20222;-57
2023/12/23 06:56:51;;;;;;;5.22;1.95;;;8.60;99.90;;;;;;5053180;28;20171;-57
2023/12/23 06:59:16;;;;;;;6.38;1.83;;;8.60;99.90;;;;;;5052763;28;20212;-57
2023/12/23 07:01:42;;;;;;;9.65;2.28;;;8.60;99.90;;;;;;5052110;28;20181;-57
2023/12/23 07:04:08;;;;;;;8.07;1.80;;;8.60;99.90;;;;;;5051572;28;20167;-57
2023/12/23 07:06:35;;;;;;;4.25;2.05;;;8.60;99.90;;;;;;5051961;28;20206;-57
2023/12/23 07:09:01;;;;;;;4.18;2.55;;;8.60;99.90;;;;;;5051876;28;20167;-54
2023/12/23 07:11:27;;;;;;;5.38;2.45;;;8.60;99.90;;;;;;5051897;28;20177;-57
2023/12/23 07:13:53;;;;;;;9.45;2.35;;;8.60;99.90;;;;;;5051904;28;20650;-56
2023/12/23 07:16:18;;;;;;;6.10;2.28;;;8.60;99.90;;;;;;5052127;28;20260;-56
2023/12/23 07:18:44;;;;;;;6.88;2.53;;;8.60;99.90;;;;;;5052193;28;20202;-56
2023/12/23 07:21:09;;;;;;;10.05;2.78;;;8.60;99.90;;;;;;5052056;28;20637;-56
2023/12/23 07:23:35;;;;;;;8.00;3.10;;;8.60;99.90;;;;;;5051939;28;20508;-56
2023/12/23 07:26:02;;;;;;;7.88;2.90;;;8.50;99.90;;;;;;5051966;28;20178;-56
2023/12/23 07:28:27;;;;;;;18.42;4.13;;;8.50;99.90;;;;;;5051793;28;20174;-54
2023/12/23 07:30:53;;;;;;;4.38;2.65;;;8.50;99.90;;;;;;5051920;28;20167;-54
2023/12/23 07:33:19;;;;;;;7.95;3.65;;;8.50;99.90;;;;;;5051708;28;20250;-56
2023/12/23 07:35:45;;;;;;;7.70;4.45;;;8.50;99.90;;;;;;5052444;28;20169;-56
2023/12/23 07:38:10;;;;;;;4.80;3.63;;;8.50;99.90;;;;;;5051965;28;20571;-56
2023/12/23 07:40:36;;;;;;;8.90;4.25;;;8.50;99.90;;;;;;5051968;28;20603;-57
2023/12/23 07:43:02;;;;;;;12.07;4.10;;;8.40;99.90;;;;;;5051617;28;20159;-56
2023/12/23 07:45:27;;;;;;;9.45;4.13;;;8.50;99.90;;;;;;5051686;28;20166;-56
2023/12/23 07:47:53;;;;;;;13.15;4.05;;;8.50;99.90;;;;;;5051626;28;20177;-56
2023/12/23 07:50:19;;;;;;;10.50;3.03;;;8.50;99.90;;;;;;5051900;28;20534;-56
2023/12/23 07:52:44;;;;;;;4.88;2.95;;;8.50;99.90;;;;;;5052181;28;20505;-56
2023/12/23 07:55:10;;;;;;;7.35;3.22;;;8.50;99.90;;;;;;5051664;28;20219;-56
2023/12/23 07:57:35;;;;;;;7.03;3.40;;;8.50;99.90;;;;;;5051753;28;20213;-56
2023/12/23 08:00:01;;;;;;;11.35;4.10;;;8.50;99.90;;;;;;5051725;28;20174;-56
2023/12/23 08:02:26;;;;;;;10.95;4.28;;;8.50;99.90;;;;;;5051679;28;20575;-56
2023/12/23 08:04:52;;;;;;;10.48;3.97;;;8.50;99.90;;;;;;5051637;28;20170;-56
2023/12/23 08:07:17;;;;;;;16.02;3.85;;;8.50;99.90;;;;;;5051585;28;20167;-54
2023/12/23 08:09:43;;;;;;;10.27;3.78;;;8.50;99.90;;;;;;5050821;28;20171;-56
2023/12/23 08:12:08;;;;;;;8.95;3.83;;;8.50;99.90;;;;;;5051507;28;20220;-56
2023/12/23 08:14:34;;;;;;;7.25;3.50;;;8.50;99.90;;;;;;5051244;28;20178;-56
2023/12/23 08:17:00;;;;;;;12.35;3.72;;;8.60;99.90;;;;;;5051799;28;20166;-57
2023/12/23 08:19:25;;;;;;;11.43;6.03;;;8.60;99.90;;;;;;5051334;28;20210;-57
2023/12/23 08:21:51;;;;;;;10.38;4.85;;;8.50;99.90;;;;;;5050116;28;20163;-56
2023/12/23 08:24:17;;;;;;;7.55;3.15;;;8.60;99.90;;;;;;5051840;28;20177;-55
2023/12/23 08:26:42;;;;;;;7.90;4.30;;;8.60;99.90;;;;;;5051820;28;20166;-57
2023/12/23 08:29:09;;;;;;;10.40;3.72;;;8.60;99.90;;;;;;5051393;28;20166;-56
2023/12/23 08:31:44;;;;;;;13.10;4.03;;;8.60;99.90;;;;;;5050025;28;20197;-57
2023/12/23 08:34:10;;;;;;;6.72;3.53;;;8.60;99.90;;;;;;5051247;28;20694;-56
2023/12/23 08:36:35;;;;;;;7.85;3.42;;;8.60;99.90;;;;;;5051438;28;20265;-56
2023/12/23 08:39:01;;;;;;;4.97;3.10;;;8.70;99.90;;;;;;5051140;28;20206;-56
2023/12/23 08:41:26;;;;;;;10.13;3.95;;;8.70;99.90;;;;;;5051268;28;20170;-56
2023/12/23 08:43:52;;;;;;;6.15;3.55;;;8.80;99.90;;;;;;5051223;28;20167;-56
2023/12/23 08:46:18;;;;;;;8.50;3.95;;;8.80;99.90;;;;;;5050880;28;20233;-55
2023/12/23 08:48:44;;;;;;;7.07;3.55;;;8.80;99.90;;;;;;5051616;28;20166;-56
2023/12/23 08:51:10;;;;;;;8.00;2.85;;;8.90;99.90;;;;;;5051371;28;20173;-56
2023/12/23 08:53:36;;;;;;;8.75;3.70;;;8.90;99.90;;;;;;5052036;28;20214;-57
2023/12/23 08:56:01;;;;;;;8.68;3.78;;;8.90;99.90;;;;;;5055219;28;20171;-57
2023/12/23 08:58:27;;;;;;;8.55;3.25;;;8.90;99.90;;;;;;5054832;28;20544;-57
2023/12/23 09:00:52;;;;;;;15.07;4.28;;;8.90;99.90;;;;;;5055076;28;20641;-57
2023/12/23 09:03:18;;;;;;;10.30;3.33;;;9.00;99.90;;;;;;5055105;28;20250;-57
2023/12/23 09:05:44;;;;;;;8.50;3.03;;;9.00;99.90;;;;;;5055388;28;20304;-57
2023/12/23 09:08:11;;;;;;;14.73;4.53;;;9.00;99.90;;;;;;5054883;28;20170;-56
2023/12/23 09:10:37;;;;;;;11.13;3.20;;;9.00;99.90;;;;;;5054802;28;20163;-57
2023/12/23 09:13:04;;;;;;;8.68;2.83;;;9.00;99.90;;;;;;5054849;28;20235;-56
2023/12/23 09:15:29;;;;;;;7.90;3.10;;;9.10;99.90;;;;;;5054791;28;20203;-56
2023/12/23 09:17:55;;;;;;;7.90;3.72;;;9.10;99.90;;;;;;5054450;28;20657;-57
2023/12/23 09:20:21;;;;;;;5.88;2.67;;;9.10;99.90;;;;;;5054708;28;20181;-56
2023/12/23 09:22:46;;;;;;;8.57;3.15;;;9.00;99.90;;;;;;5055040;28;20644;-57
2023/12/23 09:25:12;;;;;;;6.45;2.72;;;9.00;99.90;;;;;;5054667;28;20241;-55
2023/12/23 09:27:37;;;;;;;11.18;3.55;;;9.00;99.90;;;;;;5054936;28;20171;-55
2023/12/23 09:30:04;;;;;;;9.57;3.00;;;9.00;99.90;;;;;;5054580;28;20170;-56
2023/12/23 09:32:30;;;;;;;10.25;3.20;;;9.10;99.90;;;;;;5054656;28;20688;-55
2023/12/23 09:34:55;;;;;;;9.15;3.20;;;9.10;99.90;;;;;;5054433;28;20159;-53
2023/12/23 09:37:21;;;;;;;8.27;2.65;;;9.10;99.90;;;;;;5054327;28;20166;-52
2023/12/23 09:39:47;;;;;;;8.50;2.53;;;9.10;99.90;;;;;;5054817;28;20254;-53
2023/12/23 09:42:12;;;;;;;12.40;2.70;;;9.10;99.90;;;;;;5054696;28;20190;-52
2023/12/23 09:44:38;;;;;;;10.50;3.28;;;9.10;99.90;;;;;;5054077;28;20178;-52
2023/12/23 09:47:06;;;;;;;13.00;3.05;;;9.10;99.90;;;;;;5054245;28;20166;-52
2023/12/23 09:49:32;;;;;;;6.68;2.40;;;9.20;99.90;;;;;;5054259;28;20167;-52
2023/12/23 09:51:59;;;;;;;8.10;2.80;;;9.20;99.90;;;;;;5054224;28;20163;-52
2023/12/23 09:54:27;;;;;;;9.50;2.88;;;9.30;99.90;;;;;;5053979;28;20218;-52
2023/12/23 09:56:53;;;;;;;11.30;2.88;;;9.30;99.90;;;;;;5054174;28;20170;-54
2023/12/23 09:59:19;;;;;;;8.35;2.15;;;9.30;99.90;;;;;;5053926;28;20206;-52
2023/12/23 10:01:45;;;;;;;2.95;1.73;;;9.20;99.90;;;;;;5054437;28;20534;-52
2023/12/23 10:04:11;;;;;;;6.38;3.17;;;9.30;99.90;;;;;;5054002;28;20198;-52
2023/12/23 10:06:37;;;;;;;11.20;2.83;;;9.30;99.90;;;;;;5053803;28;20221;-52
2023/12/23 10:09:03;;;;;;;5.50;2.75;;;9.30;99.90;;;;;;5053823;28;20198;-53
2023/12/23 10:11:29;;;;;;;6.63;2.78;;;9.20;99.90;;;;;;5053839;28;20197;-52
2023/12/23 10:13:56;;;;;;;7.10;2.90;;;9.10;99.90;;;;;;5053469;28;20603;-52
2023/12/23 10:16:22;;;;;;;6.80;3.42;;;9.20;99.90;;;;;;5053682;28;20173;-55
2023/12/23 10:18:48;;;;;;;10.23;2.92;;;9.20;99.90;;;;;;5053516;28;20285;-55
2023/12/23 10:21:14;;;;;;;5.38;3.08;;;9.10;99.90;;;;;;5054317;28;20171;-55
2023/12/23 10:23:40;;;;;;;9.68;2.83;;;9.10;99.90;;;;;;5053615;28;20183;-55
2023/12/23 10:26:05;;;;;;;6.60;3.97;;;9.10;99.90;;;;;;5053510;28;20524;-54
2023/12/23 10:28:35;;;;;;;6.95;2.55;;;9.10;99.90;;;;;;5053475;28;20177;-56
2023/12/23 10:31:04;;;;;;;8.50;3.40;;;9.10;99.90;;;;;;5053422;28;20193;-55
2023/12/23 10:33:38;;;;;;;13.70;3.33;;;9.10;99.90;;;;;;5053620;28;20178;-58
2023/12/23 10:36:05;;;;;;;6.65;3.30;;;9.10;99.90;;;;;;5053438;28;20562;-58
2023/12/23 10:38:34;;;;;;;7.22;3.53;;;9.10;99.90;;;;;;5053191;28;20222;-57
2023/12/23 10:41:20;;;;;;;4.82;2.47;;;9.00;99.90;;;;;;5053250;28;20216;-58
2023/12/23 10:43:47;;;;;;;5.65;2.78;;;9.00;99.90;;;;;;5053620;28;20216;-58
2023/12/23 10:46:15;;;;;;;9.73;2.72;;;9.00;99.90;;;;;;5053055;28;20159;-57
2023/12/23 10:48:42;;;;;;;4.38;2.38;;;9.00;99.90;;;;;;5053322;28;20186;-58
2023/12/23 10:51:09;;;;;;;3.25;1.75;;;9.00;99.90;;;;;;5052985;28;20261;-57
2023/12/23 10:53:35;;;;;;;5.40;2.42;;;9.00;99.90;;;;;;5052879;28;20217;-57
2023/12/23 10:56:01;;;;;;;7.30;2.67;;;9.00;99.90;;;;;;5052960;28;20626;-58
2023/12/23 10:58:27;;;;;;;6.20;2.58;;;9.00;99.90;;;;;;5052802;28;20214;-57
2023/12/23 11:00:57;;;;;;;4.97;2.78;;;9.00;99.90;;;;;;5053119;28;20179;-57
2023/12/23 11:03:25;;;;;;;7.63;2.80;;;9.00;99.90;;;;;;5052788;28;20167;-57
2023/12/23 11:05:52;;;;;;;5.80;3.25;;;9.00;99.90;;;;;;5052669;28;20637;-57
2023/12/23 11:08:22;;;;;;;9.02;3.97;;;9.00;99.90;;;;;;5052755;28;20175;-57
2023/12/23 11:10:48;;;;;;;8.02;2.75;;;9.00;99.90;;;;;;5052852;28;20261;-54
2023/12/23 11:13:15;;;;;;;9.52;3.08;;;9.10;99.90;;;;;;5053348;28;20213;-57
2023/12/23 11:15:42;;;;;;;5.72;2.53;;;9.10;99.90;;;;;;5052341;28;20178;-57
2023/12/23 11:18:10;;;;;;;7.43;2.78;;;9.00;99.90;;;;;;5052158;28;20661;-55
2023/12/23 11:20:47;;;;;;;9.82;3.42;;;9.10;99.90;;;;;;5052465;28;20197;-56
2023/12/23 11:23:28;;;;;;;5.55;2.10;;;9.10;99.90;;;;;;5053241;28;20170;-57
2023/12/23 11:25:54;;;;;;;9.98;3.72;;;9.10;99.90;;;;;;5052537;28;20213;-55
2023/12/23 11:28:20;;;;;;;4.97;2.35;;;9.10;99.90;;;;;;5052264;28;20182;-55
2023/12/23 11:30:54;;;;;;;8.07;2.55;;;9.10;99.90;;;;;;5052709;28;20171;-54
2023/12/23 11:33:21;;;;;;;9.65;3.17;;;9.10;99.90;;;;;;5052506;28;20539;-55
2023/12/23 11:35:51;;;;;;;3.45;2.05;;;9.10;99.90;;;;;;5052777;28;20597;-54
2023/12/23 11:38:17;;;;;;;4.47;1.92;;;9.20;99.90;;;;;;5052583;28;20218;-54
2023/12/23 11:40:43;;;;;;;8.32;2.55;;;9.20;99.90;;;;;;5052669;28;20162;-54
2023/12/23 11:43:08;;;;;;;5.43;2.50;;;9.20;99.90;;;;;;5052068;28;20175;-54
2023/12/23 11:45:37;;;;;;;7.88;2.55;;;9.30;99.90;;;;;;5051636;28;20175;-55
2023/12/23 11:48:06;;;;;;;5.63;2.55;;;9.30;99.90;;;;;;5051907;28;20202;-55
2023/12/23 11:50:31;;;;;;;4.93;2.20;;;9.30;99.90;;;;;;5051981;28;20159;-55
2023/12/23 11:52:57;;;;;;;7.68;2.90;;;9.30;99.90;;;;;;5052099;28;20679;-55
2023/12/23 11:55:23;;;;;;;5.25;1.83;;;9.30;99.90;;;;;;5051719;28;20214;-54
2023/12/23 11:57:49;;;;;;;10.32;2.95;;;9.40;99.90;;;;;;5051806;28;20194;-55
2023/12/23 12:00:15;;;;;;;5.93;1.90;;;9.40;99.90;;;;;;5052190;28;20174;-54
2023/12/23 12:02:40;;;;;;;3.38;1.95;;;9.40;99.90;;;;;;5051796;28;20195;-55
2023/12/23 12:05:06;;;;;;;6.15;2.20;;;9.50;99.90;;;;;;5051561;28;20232;-55
2023/12/23 12:07:32;;;;;;;4.10;1.88;;;9.50;99.90;;;;;;5050470;28;20182;-55
2023/12/23 12:09:58;;;;;;;4.95;2.15;;;9.40;99.90;;;;;;5051726;28;20628;-55
2023/12/23 12:12:23;;;;;;;8.77;2.30;;;9.50;99.90;;;;;;5051526;28;20187;-55
2023/12/23 12:14:49;;;;;;;11.48;2.47;;;9.60;99.90;;;;;;5051333;28;20526;-55
2023/12/23 12:17:15;;;;;;;3.70;2.05;;;9.50;99.90;;;;;;5051723;28;20178;-55
2023/12/23 12:19:40;;;;;;;4.85;1.73;;;9.60;99.90;;;;;;5051512;28;20190;-55
2023/12/23 12:22:06;;;;;;;9.43;2.33;;;9.60;99.90;;;;;;5051375;28;20166;-55
2023/12/23 12:24:35;;;;;;;6.93;2.13;;;9.60;99.90;;;;;;5051477;28;20171;-55
2023/12/23 12:27:01;;;;;;;4.80;2.45;;;9.70;99.90;;;;;;5050099;28;20178;-55
2023/12/23 12:29:27;;;;;;;5.10;2.10;;;9.70;99.90;;;;;;5050759;28;20498;-55
2023/12/23 12:31:54;;;;;;;8.20;2.05;;;9.80;99.90;;;;;;5051333;28;20181;-54
2023/12/23 12:34:23;;;;;;;5.22;1.70;;;9.60;99.90;;;;;;5051247;28;20262;-55
2023/12/23 12:36:52;;;;;;;5.57;1.70;;;9.60;99.90;;;;;;5051257;28;20163;-54
2023/12/23 12:39:19;;;;;;;5.32;1.88;;;9.70;99.90;;;;;;5051146;28;20210;-55
2023/12/23 12:41:45;;;;;;;6.57;2.78;;;9.70;99.90;;;;;;5051615;28;20576;-55
2023/12/23 12:44:11;;;;;;;4.80;2.00;;;9.70;99.90;;;;;;5051245;28;20540;-54
2023/12/23 12:46:36;;;;;;;4.85;1.60;;;9.80;99.90;;;;;;5051174;28;20159;-54
2023/12/23 12:49:06;;;;;;;4.10;1.55;;;9.80;99.90;;;;;;5051414;28;20182;-54